Time;durP1;ratioP1;P1;durP2;ratioP2;P2;SDS_P1;SDS_P2;PMS_P1;PMS_P2;Temp;Humidity;BMP_temperature;BMP_pressure;BME280_temperature;BME280_humidity;BME280_pressure;Samples;Min_cycle;Max_cycle;Signal;HPM_P1;HPM_P2
2022/07/06 00:00:06;;;;;;;3.33;2.07;;;18.60;99.60;;;;;;4986978;28;20659;-80
2022/07/06 00:02:33;;;;;;;1.80;1.70;;;18.60;99.90;;;;;;4989542;28;20649;-80
2022/07/06 00:05:00;;;;;;;2.57;2.20;;;18.60;99.90;;;;;;4989311;28;20612;-80
2022/07/06 00:07:27;;;;;;;2.53;2.20;;;18.60;99.90;;;;;;4989351;28;20633;-79
2022/07/06 00:09:55;;;;;;;2.10;1.90;;;18.50;99.90;;;;;;4971645;28;21022;-80
2022/07/06 00:12:22;;;;;;;1.70;1.60;;;18.60;99.90;;;;;;4989653;28;20632;-80
2022/07/06 00:14:49;;;;;;;3.77;1.90;;;18.60;99.90;;;;;;4989071;28;20722;-80
2022/07/06 00:17:16;;;;;;;4.10;2.03;;;18.50;99.90;;;;;;4989188;28;20637;-79
2022/07/06 00:19:42;;;;;;;3.27;1.90;;;18.50;99.90;;;;;;4988201;28;20656;-80
2022/07/06 00:22:09;;;;;;;1.90;1.70;;;18.50;99.90;;;;;;4989158;28;20654;-80
2022/07/06 00:24:36;;;;;;;2.60;1.90;;;18.50;99.90;;;;;;4989291;28;20632;-80
2022/07/06 00:27:05;;;;;;;2.50;1.90;;;18.50;99.90;;;;;;4989446;28;21187;-79
2022/07/06 00:29:32;;;;;;;6.90;2.10;;;18.50;99.90;;;;;;4988163;28;21024;-79
2022/07/06 00:31:59;;;;;;;4.77;2.07;;;18.50;99.90;;;;;;4988942;28;20631;-79
2022/07/06 00:34:26;;;;;;;5.87;2.20;;;18.50;99.90;;;;;;4989162;28;20631;-80
2022/07/06 00:36:52;;;;;;;2.73;2.00;;;18.50;99.90;;;;;;4989076;28;20655;-79
2022/07/06 00:39:21;;;;;;;4.60;2.60;;;18.40;99.90;;;;;;4987037;28;20632;-80
2022/07/06 00:41:48;;;;;;;1.77;1.67;;;18.40;99.90;;;;;;4988580;28;21231;-80
2022/07/06 00:44:17;;;;;;;3.03;1.80;;;18.40;99.90;;;;;;4987576;28;20637;-80
2022/07/06 00:46:43;;;;;;;1.57;1.47;;;18.40;99.90;;;;;;4987093;28;20632;-80
2022/07/06 00:50:13;;;;;;;4.10;2.30;;;18.30;99.90;;;;;;4988172;28;20632;-80
2022/07/06 00:51:57;;;;;;;5.23;2.00;;;18.30;99.90;;;;;;4988610;28;21302;-80
2022/07/06 00:54:24;;;;;;;3.10;1.70;;;18.20;99.90;;;;;;4988248;28;21074;-80
2022/07/06 00:56:52;;;;;;;2.50;2.10;;;18.20;99.90;;;;;;4988459;28;21437;-80
2022/07/06 00:59:20;;;;;;;2.33;2.03;;;18.10;99.90;;;;;;4986104;28;20624;-80
2022/07/06 01:01:47;;;;;;;5.57;1.90;;;18.10;99.90;;;;;;4988418;28;21132;-80
2022/07/06 01:04:14;;;;;;;2.53;2.10;;;18.00;99.90;;;;;;4987729;28;20632;-80
2022/07/06 01:06:41;;;;;;;2.43;1.93;;;17.90;99.90;;;;;;4987392;28;20636;-80
2022/07/06 01:09:08;;;;;;;2.07;1.90;;;17.80;99.90;;;;;;4987897;28;20635;-80
2022/07/06 01:11:34;;;;;;;1.97;1.87;;;17.70;99.90;;;;;;4986552;28;20633;-79
2022/07/06 01:14:01;;;;;;;3.40;2.30;;;17.70;99.90;;;;;;4986815;28;20629;-79
2022/07/06 01:16:30;;;;;;;2.23;1.90;;;17.60;99.90;;;;;;4985787;28;20668;-79
2022/07/06 01:18:57;;;;;;;2.10;1.90;;;17.60;99.90;;;;;;4987121;28;20639;-79
2022/07/06 01:21:25;;;;;;;4.53;2.00;;;17.60;99.90;;;;;;4988068;28;20652;-82
2022/07/06 01:23:52;;;;;;;2.80;2.13;;;17.50;99.90;;;;;;4988241;28;20637;-81
2022/07/06 01:26:20;;;;;;;2.40;2.20;;;17.50;99.90;;;;;;4987767;28;20644;-81
2022/07/06 01:28:49;;;;;;;2.27;2.03;;;17.50;99.90;;;;;;4987332;28;21199;-80
2022/07/06 01:31:17;;;;;;;2.13;1.93;;;17.50;99.90;;;;;;4987733;28;20656;-80
2022/07/06 01:33:44;;;;;;;2.80;2.47;;;17.50;99.90;;;;;;4987786;28;20632;-81
2022/07/06 01:36:11;;;;;;;3.73;2.20;;;17.50;99.90;;;;;;4986905;28;20664;-80
2022/07/06 01:38:46;;;;;;;2.70;2.50;;;17.40;99.90;;;;;;4987372;28;20636;-80
2022/07/06 01:41:13;;;;;;;3.87;2.10;;;17.40;99.90;;;;;;4986672;28;20655;-81
2022/07/06 01:43:40;;;;;;;3.23;2.80;;;17.40;99.90;;;;;;4987304;28;20636;-79
2022/07/06 01:46:07;;;;;;;2.73;2.53;;;17.30;99.90;;;;;;4987713;28;20683;-79
2022/07/06 01:48:34;;;;;;;3.13;2.00;;;17.40;99.90;;;;;;4987170;28;21179;-79
2022/07/06 01:51:01;;;;;;;2.40;2.30;;;17.30;99.90;;;;;;4987730;28;20687;-79
2022/07/06 01:53:28;;;;;;;2.87;2.20;;;17.30;99.90;;;;;;4984145;28;21017;-79
2022/07/06 01:55:56;;;;;;;2.40;2.20;;;17.30;99.90;;;;;;4986257;28;20703;-79
2022/07/06 01:58:22;;;;;;;2.37;2.17;;;17.30;99.90;;;;;;4986599;28;21458;-80
2022/07/06 02:00:49;;;;;;;2.17;1.97;;;17.30;99.90;;;;;;4985137;28;20663;-79
2022/07/06 02:03:16;;;;;;;3.00;2.80;;;17.30;99.90;;;;;;4987207;28;20683;-81
2022/07/06 02:05:43;;;;;;;3.33;2.43;;;17.30;99.90;;;;;;4987020;28;20640;-79
2022/07/06 02:08:10;;;;;;;2.53;2.03;;;17.30;99.90;;;;;;4987507;28;20636;-79
2022/07/06 02:10:37;;;;;;;3.43;2.27;;;17.20;99.90;;;;;;4985256;28;21595;-79
2022/07/06 02:13:05;;;;;;;2.30;2.00;;;17.20;99.90;;;;;;4985381;28;20636;-79
2022/07/06 02:15:31;;;;;;;2.80;2.23;;;17.30;99.90;;;;;;4987037;28;20669;-80
2022/07/06 02:17:58;;;;;;;2.37;2.17;;;17.20;99.90;;;;;;4986409;28;20632;-80
2022/07/06 02:20:25;;;;;;;2.90;1.87;;;17.10;99.90;;;;;;4986447;28;20648;-80
2022/07/06 02:22:52;;;;;;;1.90;1.80;;;17.10;99.90;;;;;;4987029;28;20646;-80
2022/07/06 02:25:19;;;;;;;2.20;2.00;;;17.10;99.90;;;;;;4987063;28;20975;-79
2022/07/06 02:27:46;;;;;;;3.50;2.40;;;17.00;99.90;;;;;;4987276;28;20636;-80
2022/07/06 02:30:15;;;;;;;3.20;2.00;;;17.10;99.90;;;;;;4986054;28;20652;-80
2022/07/06 02:32:42;;;;;;;2.23;2.03;;;17.00;99.90;;;;;;4986774;28;21217;-79
2022/07/06 02:35:09;;;;;;;2.73;2.53;;;17.00;99.90;;;;;;4987025;28;20628;-79
2022/07/06 02:37:36;;;;;;;2.57;2.13;;;17.00;99.90;;;;;;4987103;28;20637;-80
2022/07/06 02:40:04;;;;;;;2.23;2.03;;;16.90;99.90;;;;;;4983569;28;20654;-79
2022/07/06 02:42:31;;;;;;;5.17;2.50;;;16.90;99.90;;;;;;4987255;28;20640;-79
2022/07/06 02:44:57;;;;;;;3.40;2.33;;;16.90;99.90;;;;;;4986322;28;20639;-81
2022/07/06 02:47:26;;;;;;;4.53;2.10;;;16.90;99.90;;;;;;4986179;28;20625;-80
2022/07/06 02:49:53;;;;;;;3.13;2.50;;;16.90;99.90;;;;;;4984182;28;20667;-80
2022/07/06 02:52:20;;;;;;;3.67;2.13;;;16.90;99.90;;;;;;4985002;28;20636;-79
2022/07/06 02:54:48;;;;;;;4.77;2.00;;;16.90;99.90;;;;;;4982587;28;20732;-79
2022/07/06 02:57:15;;;;;;;2.97;2.17;;;16.90;99.90;;;;;;4986502;28;21230;-79
2022/07/06 02:59:42;;;;;;;6.00;2.20;;;16.90;99.90;;;;;;4985716;28;20663;-80
2022/07/06 03:02:09;;;;;;;5.40;2.43;;;16.90;99.90;;;;;;4984671;28;20634;-79
2022/07/06 03:04:37;;;;;;;2.83;2.23;;;16.80;99.90;;;;;;4986455;28;20637;-79
2022/07/06 03:07:04;;;;;;;2.63;2.43;;;16.80;99.90;;;;;;4986859;28;20632;-80
2022/07/06 03:09:31;;;;;;;2.53;2.30;;;16.80;99.90;;;;;;4985612;28;20660;-80
2022/07/06 03:11:58;;;;;;;2.70;2.30;;;16.70;99.90;;;;;;4986089;28;20640;-79
2022/07/06 03:14:26;;;;;;;2.30;2.20;;;16.70;99.90;;;;;;4985534;28;20653;-79
2022/07/06 03:16:53;;;;;;;4.57;2.40;;;16.60;99.90;;;;;;4986800;28;20648;-80
2022/07/06 03:19:20;;;;;;;5.10;2.83;;;16.60;99.90;;;;;;4984964;28;20632;-80
2022/07/06 03:21:48;;;;;;;2.40;2.20;;;16.60;99.90;;;;;;4986548;28;20632;-79
2022/07/06 03:24:15;;;;;;;1.97;1.83;;;16.60;99.90;;;;;;4986356;28;21219;-80
2022/07/06 03:26:42;;;;;;;2.23;2.03;;;16.60;99.90;;;;;;4985783;28;20639;-80
2022/07/06 03:29:09;;;;;;;3.03;2.20;;;16.50;99.90;;;;;;4985284;28;20639;-80
2022/07/06 03:31:36;;;;;;;4.00;2.37;;;16.50;99.90;;;;;;4985591;28;20640;-80
2022/07/06 03:34:03;;;;;;;2.53;2.33;;;16.50;99.90;;;;;;4987145;28;20624;-79
2022/07/06 03:36:30;;;;;;;3.27;2.97;;;16.40;99.90;;;;;;4989536;28;20687;-79
2022/07/06 03:38:58;;;;;;;4.17;2.73;;;16.40;99.90;;;;;;4988618;28;20633;-79
2022/07/06 03:41:25;;;;;;;5.00;3.60;;;16.40;99.90;;;;;;4988815;28;21257;-79
2022/07/06 03:43:51;;;;;;;2.67;2.47;;;16.30;99.90;;;;;;4989510;28;20668;-80
2022/07/06 03:46:18;;;;;;;4.23;2.70;;;16.30;99.90;;;;;;4989366;28;21125;-80
2022/07/06 03:48:45;;;;;;;4.23;2.60;;;16.30;99.90;;;;;;4988999;28;20611;-80
2022/07/06 03:51:12;;;;;;;3.60;2.80;;;16.30;99.90;;;;;;4989141;28;21423;-80
2022/07/06 03:53:38;;;;;;;3.00;2.60;;;16.30;99.90;;;;;;4989437;28;20636;-80
2022/07/06 03:58:51;;;;;;;3.73;2.83;;;16.30;99.90;;;;;;4988444;28;21622;-81
2022/07/06 04:01:18;;;;;;;3.80;1.90;;;16.20;99.90;;;;;;4986855;28;20690;-80
2022/07/06 04:03:45;;;;;;;3.10;2.60;;;16.10;99.90;;;;;;4987442;28;20985;-82
2022/07/06 04:06:12;;;;;;;4.37;2.63;;;16.00;99.90;;;;;;4988777;28;20616;-81
2022/07/06 04:08:39;;;;;;;3.97;2.23;;;16.00;99.90;;;;;;4988041;28;20833;-81
2022/07/06 04:11:07;;;;;;;3.00;2.67;;;15.90;99.90;;;;;;4988742;28;20651;-81
2022/07/06 04:13:34;;;;;;;6.27;2.40;;;16.00;99.90;;;;;;4988391;28;20743;-81
2022/07/06 04:16:01;;;;;;;3.60;2.70;;;15.90;99.90;;;;;;4989369;28;20698;-81
2022/07/06 04:18:27;;;;;;;3.03;2.43;;;15.90;99.90;;;;;;4985235;28;20729;-82
2022/07/06 04:20:57;;;;;;;3.40;2.63;;;15.90;99.90;;;;;;4988575;28;20660;-82
2022/07/06 04:23:24;;;;;;;5.27;2.33;;;15.80;99.90;;;;;;4988981;28;20649;-80
2022/07/06 04:25:50;;;;;;;4.10;3.10;;;15.90;99.90;;;;;;4988562;28;20632;-80
2022/07/06 04:28:18;;;;;;;3.23;2.43;;;15.90;99.90;;;;;;4988485;28;20632;-80
2022/07/06 04:30:45;;;;;;;3.20;2.37;;;15.90;99.90;;;;;;4988674;28;20675;-81
2022/07/06 04:33:12;;;;;;;4.87;2.57;;;15.90;99.90;;;;;;4989231;28;20642;-80
2022/07/06 04:35:39;;;;;;;3.33;2.43;;;16.00;99.90;;;;;;4988550;28;20632;-79
2022/07/06 04:38:05;;;;;;;3.00;2.20;;;16.00;99.90;;;;;;4988578;28;20674;-80
2022/07/06 04:40:32;;;;;;;3.20;2.63;;;16.10;99.90;;;;;;4987546;28;20656;-80
2022/07/06 04:42:59;;;;;;;8.67;2.50;;;16.20;99.90;;;;;;4988170;28;20635;-79
2022/07/06 04:45:27;;;;;;;5.07;3.60;;;16.20;99.90;;;;;;4988078;28;20616;-79
2022/07/06 04:47:54;;;;;;;4.73;2.70;;;16.30;99.90;;;;;;4988612;28;20633;-80
2022/07/06 04:50:21;;;;;;;6.93;2.67;;;16.30;99.90;;;;;;4987094;28;20688;-80
2022/07/06 04:52:48;;;;;;;3.83;2.83;;;16.30;99.90;;;;;;4988824;28;20647;-80
2022/07/06 04:55:15;;;;;;;5.30;3.13;;;16.40;99.90;;;;;;4987279;28;20644;-80
2022/07/06 04:57:42;;;;;;;4.40;3.23;;;16.50;99.90;;;;;;4987760;28;20671;-81
2022/07/06 05:00:10;;;;;;;2.43;2.20;;;16.50;99.90;;;;;;4986984;28;20648;-80
2022/07/06 05:02:38;;;;;;;4.33;2.50;;;16.50;99.90;;;;;;4987964;28;20647;-81
2022/07/06 05:05:05;;;;;;;3.50;2.70;;;16.60;99.90;;;;;;4985635;28;20612;-80
2022/07/06 05:07:33;;;;;;;9.27;3.30;;;16.60;99.90;;;;;;4986822;28;20659;-80
2022/07/06 05:10:00;;;;;;;3.37;2.80;;;16.70;99.90;;;;;;4986871;28;20664;-80
2022/07/06 05:12:27;;;;;;;3.73;3.07;;;16.80;99.90;;;;;;4987728;28;21383;-80
2022/07/06 05:14:54;;;;;;;7.00;3.33;;;16.80;99.90;;;;;;4986786;28;20757;-81
2022/07/06 05:17:20;;;;;;;3.50;2.90;;;16.90;99.90;;;;;;4986594;28;20690;-80
2022/07/06 05:19:48;;;;;;;4.60;2.90;;;17.00;99.90;;;;;;4987032;28;20660;-81
2022/07/06 05:22:15;;;;;;;4.23;2.80;;;17.10;99.90;;;;;;4988600;28;20671;-81
2022/07/06 05:24:42;;;;;;;4.20;3.50;;;17.10;99.90;;;;;;4987522;28;20632;-81
2022/07/06 05:27:11;;;;;;;7.50;3.20;;;17.20;99.90;;;;;;4986737;28;20629;-81
2022/07/06 05:29:38;;;;;;;3.77;3.43;;;17.20;99.90;;;;;;4986479;28;20660;-81
2022/07/06 05:32:05;;;;;;;5.80;3.60;;;17.40;99.90;;;;;;4987795;28;20643;-80
2022/07/06 05:34:33;;;;;;;3.50;3.10;;;17.40;99.90;;;;;;4987217;28;20640;-81
2022/07/06 05:37:01;;;;;;;4.73;3.50;;;17.50;99.90;;;;;;4987068;28;20703;-80
2022/07/06 05:39:28;;;;;;;4.77;2.93;;;17.60;99.90;;;;;;4982645;28;21249;-80
2022/07/06 05:41:55;;;;;;;4.13;3.07;;;17.60;99.90;;;;;;4987590;28;20632;-81
2022/07/06 05:44:21;;;;;;;4.33;3.60;;;17.60;99.90;;;;;;4987287;28;20636;-81
2022/07/06 05:46:48;;;;;;;5.00;2.90;;;17.70;99.90;;;;;;4977727;28;21365;-80
2022/07/06 05:52:00;;;;;;;3.47;3.17;;;17.80;99.90;;;;;;4986782;28;20698;-80
2022/07/06 05:54:27;;;;;;;3.40;3.07;;;17.90;99.90;;;;;;4986354;28;20628;-80
2022/07/06 05:56:54;;;;;;;5.33;3.00;;;17.90;99.90;;;;;;4986971;28;20668;-80
2022/07/06 05:59:21;;;;;;;3.20;3.00;;;18.00;99.90;;;;;;4985480;28;20625;-80
2022/07/06 06:01:47;;;;;;;5.17;2.47;;;18.00;99.90;;;;;;4985351;28;20644;-80
2022/07/06 06:04:14;;;;;;;2.77;2.57;;;18.10;99.90;;;;;;4985329;28;20655;-80
2022/07/06 06:06:41;;;;;;;4.10;2.53;;;18.20;99.90;;;;;;4985285;28;20636;-80
2022/07/06 06:09:09;;;;;;;11.13;3.30;;;18.30;99.90;;;;;;4986277;28;20689;-79
2022/07/06 06:11:36;;;;;;;5.03;2.50;;;18.40;99.90;;;;;;4986430;28;20640;-79
2022/07/06 06:14:03;;;;;;;2.50;2.40;;;18.50;99.90;;;;;;4983889;28;20643;-81
2022/07/06 06:16:30;;;;;;;3.93;2.63;;;18.50;99.90;;;;;;4987433;28;20726;-81
2022/07/06 06:18:57;;;;;;;2.97;2.77;;;18.60;99.90;;;;;;4986351;28;20640;-80
2022/07/06 06:21:24;;;;;;;4.60;2.73;;;18.60;99.90;;;;;;4986047;28;20663;-79
2022/07/06 06:23:51;;;;;;;5.67;3.87;;;18.70;99.90;;;;;;4984848;28;20652;-81
2022/07/06 06:26:20;;;;;;;4.37;3.30;;;18.70;99.90;;;;;;4986429;28;20625;-81
2022/07/06 06:28:48;;;;;;;3.07;2.83;;;18.70;99.90;;;;;;4986026;28;20641;-80
2022/07/06 06:31:14;;;;;;;3.57;2.80;;;18.80;99.90;;;;;;4986502;28;20648;-80
2022/07/06 06:33:41;;;;;;;3.90;3.07;;;18.90;99.90;;;;;;4986059;28;20680;-79
2022/07/06 06:36:09;;;;;;;3.17;2.73;;;19.00;99.90;;;;;;4986604;28;20632;-80
2022/07/06 06:38:35;;;;;;;2.80;2.60;;;19.10;99.90;;;;;;4986411;28;21020;-80
2022/07/06 06:41:02;;;;;;;7.87;3.30;;;19.20;99.90;;;;;;4984981;28;20657;-79
2022/07/06 06:43:31;;;;;;;4.03;2.67;;;19.30;99.90;;;;;;4986315;28;20639;-80
2022/07/06 06:45:57;;;;;;;5.67;2.50;;;19.30;99.90;;;;;;4969702;28;20635;-79
2022/07/06 06:48:24;;;;;;;6.13;3.40;;;19.40;99.90;;;;;;4986645;28;20637;-80
2022/07/06 06:50:51;;;;;;;3.33;2.77;;;19.50;99.90;;;;;;4985685;28;20667;-80
2022/07/06 06:53:18;;;;;;;4.00;2.97;;;19.60;99.90;;;;;;4984030;28;20998;-79
2022/07/06 06:55:44;;;;;;;3.93;3.00;;;19.70;99.90;;;;;;4986097;28;20629;-79
2022/07/06 06:58:11;;;;;;;5.10;2.97;;;19.80;99.90;;;;;;4986190;28;20695;-79
2022/07/06 07:00:39;;;;;;;4.60;3.60;;;19.90;99.90;;;;;;4984549;28;22384;-80
2022/07/06 07:03:06;;;;;;;4.17;3.03;;;19.90;99.90;;;;;;4982986;28;21537;-80
2022/07/06 07:05:33;;;;;;;2.77;2.50;;;19.90;99.90;;;;;;4985522;28;21197;-79
2022/07/06 07:07:59;;;;;;;2.93;2.63;;;20.00;99.90;;;;;;4987418;28;20628;-80
2022/07/06 07:10:26;;;;;;;5.70;2.80;;;20.00;99.90;;;;;;4989615;28;20732;-79
2022/07/06 07:12:54;;;;;;;4.13;2.87;;;20.00;99.90;;;;;;4989809;28;20771;-80
2022/07/06 07:15:20;;;;;;;9.07;3.60;;;20.10;99.90;;;;;;4989187;28;20629;-79
2022/07/06 07:17:49;;;;;;;3.37;3.07;;;20.00;99.90;;;;;;4989321;28;20682;-79
2022/07/06 07:20:15;;;;;;;5.93;3.30;;;20.00;99.90;;;;;;4987379;28;20744;-79
2022/07/06 07:22:42;;;;;;;3.10;2.70;;;19.90;99.90;;;;;;4988228;28;20625;-79
2022/07/06 07:25:09;;;;;;;3.10;2.80;;;20.00;99.90;;;;;;4988879;28;20632;-80
2022/07/06 07:27:36;;;;;;;3.53;2.80;;;20.10;99.90;;;;;;4989703;28;20632;-80
2022/07/06 07:30:04;;;;;;;4.00;3.13;;;20.20;99.90;;;;;;4988589;28;20660;-79
2022/07/06 07:32:30;;;;;;;4.33;2.97;;;20.20;99.90;;;;;;4990056;28;20676;-79
2022/07/06 07:34:59;;;;;;;5.40;2.77;;;20.20;99.90;;;;;;4989705;28;20650;-79
2022/07/06 07:37:26;;;;;;;2.87;2.67;;;20.30;99.90;;;;;;4989681;28;20668;-79
2022/07/06 07:39:52;;;;;;;2.73;2.53;;;20.40;99.90;;;;;;4989412;28;21197;-80
2022/07/06 07:42:19;;;;;;;7.63;3.30;;;20.50;99.90;;;;;;4989214;28;20644;-79
2022/07/06 07:44:46;;;;;;;3.47;2.87;;;20.60;99.90;;;;;;4989440;28;20636;-79
2022/07/06 07:47:13;;;;;;;4.50;3.07;;;20.70;99.90;;;;;;4987668;28;20656;-79
2022/07/06 07:49:39;;;;;;;3.60;3.30;;;20.70;99.60;;;;;;4987717;28;20652;-79
2022/07/06 07:52:08;;;;;;;3.40;3.10;;;20.60;99.90;;;;;;4989777;28;21156;-79
2022/07/06 07:54:35;;;;;;;4.47;3.37;;;20.70;99.80;;;;;;4990303;28;20635;-79
2022/07/06 07:57:02;;;;;;;6.60;3.17;;;20.70;99.90;;;;;;4989069;28;20722;-79
2022/07/06 07:59:28;;;;;;;3.27;3.03;;;20.70;99.90;;;;;;4987955;28;22591;-79
2022/07/06 08:01:56;;;;;;;4.60;3.13;;;20.80;99.90;;;;;;4988156;28;20638;-79
2022/07/06 08:04:23;;;;;;;3.93;2.90;;;20.90;99.80;;;;;;4987301;28;20663;-79
2022/07/06 08:06:50;;;;;;;3.47;2.80;;;21.00;99.50;;;;;;4989319;28;20712;-80
2022/07/06 08:09:18;;;;;;;2.87;2.60;;;21.10;99.50;;;;;;4989237;28;20629;-79
2022/07/06 08:11:45;;;;;;;3.80;3.50;;;21.20;99.60;;;;;;4990059;28;20636;-79
2022/07/06 08:14:14;;;;;;;5.27;3.03;;;21.20;97.70;;;;;;4988427;28;20647;-79
2022/07/06 08:16:41;;;;;;;2.77;2.43;;;21.20;98.20;;;;;;4989241;28;20747;-79
2022/07/06 08:19:07;;;;;;;12.03;3.67;;;21.30;98.60;;;;;;4988971;28;21004;-79
2022/07/06 08:21:34;;;;;;;3.33;2.87;;;21.30;98.10;;;;;;4988402;28;20632;-79
2022/07/06 08:24:01;;;;;;;5.10;3.00;;;21.40;97.80;;;;;;4989232;28;21294;-79
2022/07/06 08:26:30;;;;;;;5.03;3.00;;;21.30;97.50;;;;;;4989610;28;20640;-79
2022/07/06 08:28:57;;;;;;;2.93;2.73;;;21.40;97.80;;;;;;4987876;28;20628;-79
2022/07/06 08:31:24;;;;;;;2.77;2.57;;;21.50;98.10;;;;;;4987735;28;20659;-79
2022/07/06 08:33:53;;;;;;;4.30;2.53;;;21.70;97.30;;;;;;4987456;28;20727;-79
2022/07/06 08:36:20;;;;;;;3.23;2.93;;;21.70;96.80;;;;;;4988817;28;20647;-79
2022/07/06 08:38:47;;;;;;;2.80;2.60;;;21.80;96.60;;;;;;4988645;28;20795;-80
2022/07/06 08:41:16;;;;;;;6.03;2.80;;;21.80;97.50;;;;;;4988549;28;20662;-80
2022/07/06 08:43:44;;;;;;;4.13;2.90;;;22.00;97.90;;;;;;4988435;28;20636;-80
2022/07/06 08:46:14;;;;;;;3.03;2.83;;;22.10;96.50;;;;;;4988061;28;20679;-80
2022/07/06 08:48:42;;;;;;;5.00;2.97;;;22.10;96.80;;;;;;4988963;28;20978;-80
2022/07/06 08:51:08;;;;;;;3.83;3.30;;;22.10;96.90;;;;;;4987442;28;21254;-80
2022/07/06 08:53:36;;;;;;;3.23;3.00;;;22.20;95.80;;;;;;4988666;28;20724;-80
2022/07/06 08:56:03;;;;;;;4.80;3.13;;;22.20;95.60;;;;;;4987680;28;20640;-80
2022/07/06 08:58:31;;;;;;;3.77;3.47;;;22.20;95.20;;;;;;4988274;28;20668;-80
2022/07/06 09:01:00;;;;;;;4.63;3.23;;;22.30;95.40;;;;;;4986766;28;20722;-80
2022/07/06 09:03:27;;;;;;;4.00;3.60;;;22.30;95.60;;;;;;4988773;28;20728;-80
2022/07/06 09:05:59;;;;;;;3.17;2.97;;;22.40;95.00;;;;;;4988585;28;20747;-80
2022/07/06 09:08:28;;;;;;;5.23;3.13;;;22.50;94.70;;;;;;4988049;28;20736;-80
2022/07/06 09:10:55;;;;;;;2.67;2.47;;;22.70;94.70;;;;;;4987383;28;20687;-80
2022/07/06 09:13:22;;;;;;;3.50;2.80;;;22.80;94.30;;;;;;4985879;28;20637;-79
2022/07/06 09:15:48;;;;;;;3.27;3.00;;;23.00;94.50;;;;;;4986937;28;20716;-79
2022/07/06 09:18:16;;;;;;;3.03;2.80;;;22.90;93.60;;;;;;4987320;28;20671;-80
2022/07/06 09:20:43;;;;;;;3.53;2.60;;;22.90;93.30;;;;;;4986794;28;20647;-80
2022/07/06 09:23:15;;;;;;;9.53;3.37;;;22.90;93.70;;;;;;4992589;28;20645;-80
2022/07/06 09:25:42;;;;;;;4.50;2.90;;;23.00;93.30;;;;;;4985616;28;20632;-80
2022/07/06 09:28:09;;;;;;;3.90;3.30;;;23.10;93.10;;;;;;4988492;28;20625;-80
2022/07/06 09:30:39;;;;;;;3.13;2.70;;;23.20;92.50;;;;;;4986364;28;20661;-80
2022/07/06 09:33:08;;;;;;;2.77;2.10;;;23.10;92.70;;;;;;4985577;28;20688;-80
2022/07/06 09:35:39;;;;;;;6.03;3.10;;;23.20;93.30;;;;;;4988685;28;20995;-80
2022/07/06 09:38:08;;;;;;;6.80;4.20;;;23.30;93.00;;;;;;4985660;28;21269;-80
2022/07/06 09:40:36;;;;;;;3.63;2.53;;;23.30;92.70;;;;;;4986834;28;21234;-80
2022/07/06 09:43:15;;;;;;;6.00;3.20;;;23.30;92.90;;;;;;4985512;28;20632;-79
2022/07/06 09:45:44;;;;;;;4.33;3.17;;;23.40;91.70;;;;;;4986077;28;20636;-79
2022/07/06 09:48:17;;;;;;;4.93;3.40;;;23.20;91.80;;;;;;4968770;28;20636;-79
2022/07/06 09:50:47;;;;;;;3.83;3.10;;;23.20;91.40;;;;;;4987153;28;20755;-79
2022/07/06 09:53:15;;;;;;;3.33;2.80;;;23.20;90.90;;;;;;4986925;28;20628;-80
2022/07/06 09:55:45;;;;;;;2.83;2.50;;;23.20;91.20;;;;;;4987995;28;21310;-80
2022/07/06 09:58:12;;;;;;;3.70;2.60;;;23.30;91.10;;;;;;4987592;28;20730;-80
2022/07/06 10:00:39;;;;;;;5.17;2.53;;;23.50;91.70;;;;;;4983389;28;20652;-80
2022/07/06 10:03:07;;;;;;;4.90;3.30;;;23.70;91.80;;;;;;4987097;28;20640;-81
2022/07/06 10:05:35;;;;;;;3.67;2.87;;;23.80;91.00;;;;;;4987423;28;20636;-80
2022/07/06 10:08:05;;;;;;;5.30;3.07;;;23.80;90.80;;;;;;4987030;28;20631;-80
2022/07/06 10:10:33;;;;;;;2.53;2.33;;;23.80;90.30;;;;;;4986873;28;20656;-80
2022/07/06 10:13:01;;;;;;;7.47;3.17;;;23.80;90.30;;;;;;4986909;28;20633;-80
2022/07/06 10:15:31;;;;;;;3.33;2.50;;;23.80;90.90;;;;;;4982771;28;20870;-80
2022/07/06 10:17:59;;;;;;;4.10;3.00;;;23.90;90.90;;;;;;4986486;28;21241;-80
2022/07/06 10:20:30;;;;;;;6.70;2.50;;;24.00;90.00;;;;;;4986118;28;21266;-79
2022/07/06 10:23:00;;;;;;;4.73;2.43;;;24.10;90.80;;;;;;4986913;28;20624;-80
2022/07/06 10:25:28;;;;;;;3.83;2.43;;;24.10;90.40;;;;;;4987357;28;21408;-79
2022/07/06 10:27:56;;;;;;;4.70;2.77;;;24.40;90.80;;;;;;4986577;28;20632;-80
2022/07/06 10:30:25;;;;;;;3.60;2.50;;;24.40;89.00;;;;;;4984716;28;20739;-80
2022/07/06 10:32:52;;;;;;;5.80;3.10;;;24.50;89.20;;;;;;4985233;28;20648;-80
2022/07/06 10:35:20;;;;;;;3.37;2.40;;;24.60;87.70;;;;;;4986830;28;20727;-80
2022/07/06 10:38:03;;;;;;;5.83;3.77;;;24.60;88.90;;;;;;4987188;28;20637;-79
2022/07/06 10:43:19;;;;;;;11.13;2.37;;;25.00;88.40;;;;;;4985870;28;20631;-80
2022/07/06 10:45:54;;;;;;;2.47;2.20;;;25.20;88.40;;;;;;4986627;28;20632;-80
2022/07/06 10:48:22;;;;;;;2.63;2.43;;;25.30;85.00;;;;;;4985899;28;20666;-79
2022/07/06 10:50:51;;;;;;;2.60;2.50;;;25.30;83.80;;;;;;4984181;28;20657;-79
2022/07/06 10:53:22;;;;;;;4.60;2.90;;;25.20;82.20;;;;;;4985509;28;20655;-79
2022/07/06 10:55:51;;;;;;;5.37;2.60;;;25.10;83.00;;;;;;4986387;28;21253;-79
2022/07/06 10:58:36;;;;;;;2.47;2.27;;;25.10;83.30;;;;;;4984466;28;20664;-79
2022/07/06 11:01:05;;;;;;;5.80;2.47;;;25.20;84.40;;;;;;4981568;28;21442;-80
2022/07/06 11:03:37;;;;;;;4.40;2.73;;;25.20;84.90;;;;;;4986013;28;20648;-80
2022/07/06 11:06:08;;;;;;;7.50;3.30;;;25.30;83.40;;;;;;4984244;28;21144;-80
2022/07/06 11:08:45;;;;;;;4.53;3.00;;;25.30;81.90;;;;;;4985616;28;21282;-80
2022/07/06 11:11:16;;;;;;;3.37;2.07;;;25.40;82.10;;;;;;4983050;28;20658;-80
2022/07/06 11:14:07;;;;;;;4.20;2.53;;;25.60;82.80;;;;;;4985819;28;20716;-80
2022/07/06 11:16:37;;;;;;;5.10;3.07;;;25.80;81.30;;;;;;4983733;28;20639;-79
2022/07/06 11:19:07;;;;;;;5.30;2.57;;;26.00;80.60;;;;;;4983413;28;20748;-79
2022/07/06 11:21:45;;;;;;;4.50;2.83;;;26.30;79.60;;;;;;4985562;28;20652;-79
2022/07/06 11:24:14;;;;;;;3.27;2.73;;;26.60;77.80;;;;;;4983929;28;20628;-79
2022/07/06 11:26:45;;;;;;;2.50;2.27;;;26.70;77.90;;;;;;4985545;28;20968;-79
2022/07/06 11:29:12;;;;;;;2.50;2.30;;;27.00;76.20;;;;;;4985502;28;21281;-78
2022/07/06 11:31:40;;;;;;;6.90;2.60;;;26.90;76.00;;;;;;4985001;28;20640;-79
2022/07/06 11:34:09;;;;;;;3.00;2.53;;;27.10;77.20;;;;;;4985530;28;20632;-79
2022/07/06 11:36:38;;;;;;;3.03;2.77;;;27.00;73.80;;;;;;4985846;28;20802;-79
2022/07/06 11:39:06;;;;;;;3.80;2.67;;;27.10;74.80;;;;;;4983757;28;21410;-79
2022/07/06 11:41:33;;;;;;;5.07;3.20;;;27.40;75.60;;;;;;4982764;28;20644;-79
2022/07/06 11:44:01;;;;;;;3.73;2.40;;;27.50;74.30;;;;;;4983471;28;20701;-79
2022/07/06 11:46:30;;;;;;;4.67;2.30;;;27.50;74.90;;;;;;4983440;28;20993;-80
2022/07/06 11:48:58;;;;;;;5.33;2.17;;;27.40;74.40;;;;;;4985594;28;20632;-79
2022/07/06 11:51:27;;;;;;;2.90;2.53;;;27.70;75.00;;;;;;4984924;28;20663;-79
2022/07/06 11:53:56;;;;;;;3.43;2.47;;;27.90;73.50;;;;;;4985523;28;20624;-80
2022/07/06 11:56:25;;;;;;;5.10;3.10;;;28.10;72.70;;;;;;4987106;28;20635;-80
2022/07/06 11:58:54;;;;;;;2.73;2.53;;;28.30;71.80;;;;;;4988059;28;20668;-79
2022/07/06 12:01:23;;;;;;;5.03;3.70;;;28.60;71.30;;;;;;4987677;28;20653;-80
2022/07/06 12:03:51;;;;;;;7.30;3.73;;;29.00;70.20;;;;;;4988850;28;20742;-79
2022/07/06 12:06:20;;;;;;;7.80;2.13;;;29.00;68.90;;;;;;4989010;28;20624;-79
2022/07/06 12:08:48;;;;;;;5.03;2.47;;;29.30;69.90;;;;;;4989048;28;20648;-79
2022/07/06 12:11:21;;;;;;;5.50;5.13;;;29.40;69.30;;;;;;4987670;28;20655;-81
2022/07/06 12:13:49;;;;;;;1.97;1.87;;;29.80;69.00;;;;;;4988137;28;20636;-79
2022/07/06 12:16:18;;;;;;;4.70;4.30;;;29.80;67.00;;;;;;4988548;28;20641;-79
2022/07/06 12:18:49;;;;;;;5.27;4.33;;;29.80;65.60;;;;;;4988582;28;20656;-79
2022/07/06 12:21:18;;;;;;;4.20;3.90;;;29.70;65.40;;;;;;4988022;28;20656;-79
2022/07/06 12:23:47;;;;;;;4.90;4.60;;;29.90;66.20;;;;;;4989214;28;20988;-79
2022/07/06 12:26:15;;;;;;;4.23;3.27;;;30.20;65.40;;;;;;4988731;28;20616;-79
2022/07/06 12:28:43;;;;;;;6.20;4.50;;;30.40;65.10;;;;;;4989071;28;20991;-80
2022/07/06 12:31:10;;;;;;;8.70;4.67;;;30.50;64.50;;;;;;4987024;28;21110;-79
2022/07/06 12:33:37;;;;;;;7.30;4.90;;;30.80;64.90;;;;;;4987890;28;21194;-80
2022/07/06 12:36:15;;;;;;;4.30;3.90;;;30.90;64.00;;;;;;4987062;28;20632;-80
2022/07/06 12:38:47;;;;;;;4.00;2.77;;;30.50;63.40;;;;;;4988859;28;21027;-79
2022/07/06 12:41:31;;;;;;;4.50;3.10;;;30.40;62.20;;;;;;4987949;28;20644;-79
2022/07/06 12:44:04;;;;;;;3.40;3.17;;;30.70;62.50;;;;;;4988042;28;20643;-79
2022/07/06 12:46:32;;;;;;;5.07;2.37;;;31.10;62.30;;;;;;4983631;28;20632;-80
2022/07/06 12:49:00;;;;;;;5.87;3.00;;;31.30;61.00;;;;;;4988633;28;20645;-80
2022/07/06 12:51:28;;;;;;;4.20;2.60;;;31.10;59.70;;;;;;4985529;28;20660;-80
2022/07/06 12:54:13;;;;;;;6.37;2.40;;;30.90;60.90;;;;;;4988519;28;20643;-80
2022/07/06 12:57:02;;;;;;;5.70;2.73;;;31.10;60.70;;;;;;4986151;28;20682;-80